sensor_id;sensor_type;location;lat;lon;timestamp;P1;P2;P0
70554;PMS5003;58104;52.744;15.242;2024-03-25T00:01:36;3;3;
70554;PMS5003;58104;52.744;15.242;2024-03-25T00:04:01;4;4;
70554;PMS5003;58104;52.744;15.242;2024-03-25T00:06:26;3;3;
70554;PMS5003;58104;52.744;15.242;2024-03-25T00:08:52;3;3;
70554;PMS5003;58104;52.744;15.242;2024-03-25T00:11:17;6;5;
70554;PMS5003;58104;52.744;15.242;2024-03-25T00:13:43;4;4;
70554;PMS5003;58104;52.744;15.242;2024-03-25T00:16:08;5;4;
70554;PMS5003;58104;52.744;15.242;2024-03-25T00:18:34;5;5;
70554;PMS5003;58104;52.744;15.242;2024-03-25T00:20:59;3;3;
70554;PMS5003;58104;52.744;15.242;2024-03-25T00:23:25;6;3;
70554;PMS5003;58104;52.744;15.242;2024-03-25T00:25:50;3;3;
70554;PMS5003;58104;52.744;15.242;2024-03-25T00:28:16;4;4;
70554;PMS5003;58104;52.744;15.242;2024-03-25T00:30:41;4;4;
70554;PMS5003;58104;52.744;15.242;2024-03-25T00:33:07;5;5;
70554;PMS5003;58104;52.744;15.242;2024-03-25T00:35:32;5;5;
70554;PMS5003;58104;52.744;15.242;2024-03-25T00:37:57;4;4;
70554;PMS5003;58104;52.744;15.242;2024-03-25T00:40:23;4;4;
70554;PMS5003;58104;52.744;15.242;2024-03-25T00:42:48;5;5;
70554;PMS5003;58104;52.744;15.242;2024-03-25T00:45:15;5;5;
70554;PMS5003;58104;52.744;15.242;2024-03-25T00:47:39;5;3;
70554;PMS5003;58104;52.744;15.242;2024-03-25T00:50:05;4;4;
70554;PMS5003;58104;52.744;15.242;2024-03-25T00:52:30;2;2;
70554;PMS5003;58104;52.744;15.242;2024-03-25T00:54:56;5;4;
70554;PMS5003;58104;52.744;15.242;2024-03-25T00:57:21;3;3;
70554;PMS5003;58104;52.744;15.242;2024-03-25T00:59:47;6;6;
70554;PMS5003;58104;52.744;15.242;2024-03-25T01:02:12;4;4;
70554;PMS5003;58104;52.744;15.242;2024-03-25T01:04:37;4;4;
70554;PMS5003;58104;52.744;15.242;2024-03-25T01:07:03;3;3;
70554;PMS5003;58104;52.744;15.242;2024-03-25T01:09:28;4;4;
70554;PMS5003;58104;52.744;15.242;2024-03-25T01:11:54;6;4;
70554;PMS5003;58104;52.744;15.242;2024-03-25T01:14:19;4;4;
70554;PMS5003;58104;52.744;15.242;2024-03-25T01:16:45;3;3;
70554;PMS5003;58104;52.744;15.242;2024-03-25T01:19:10;4;4;
70554;PMS5003;58104;52.744;15.242;2024-03-25T01:21:36;4;4;
70554;PMS5003;58104;52.744;15.242;2024-03-25T01:24:01;3;3;
70554;PMS5003;58104;52.744;15.242;2024-03-25T01:26:27;5;5;
70554;PMS5003;58104;52.744;15.242;2024-03-25T01:28:52;5;5;
70554;PMS5003;58104;52.744;15.242;2024-03-25T01:31:18;5;5;
70554;PMS5003;58104;52.744;15.242;2024-03-25T01:33:43;4;4;
70554;PMS5003;58104;52.744;15.242;2024-03-25T01:36:08;4;4;
70554;PMS5003;58104;52.744;15.242;2024-03-25T01:38:34;3;3;
70554;PMS5003;58104;52.744;15.242;2024-03-25T01:43:25;4;3;
70554;PMS5003;58104;52.744;15.242;2024-03-25T01:45:50;5;5;
70554;PMS5003;58104;52.744;15.242;2024-03-25T01:48:16;4;4;
70554;PMS5003;58104;52.744;15.242;2024-03-25T01:50:42;4;4;
70554;PMS5003;58104;52.744;15.242;2024-03-25T01:53:06;5;5;
70554;PMS5003;58104;52.744;15.242;2024-03-25T01:55:32;4;4;
70554;PMS5003;58104;52.744;15.242;2024-03-25T01:57:57;3;3;
70554;PMS5003;58104;52.744;15.242;2024-03-25T02:00:23;6;4;
70554;PMS5003;58104;52.744;15.242;2024-03-25T02:02:48;4;4;
70554;PMS5003;58104;52.744;15.242;2024-03-25T02:05:14;7;5;
70554;PMS5003;58104;52.744;15.242;2024-03-25T02:07:39;4;4;
70554;PMS5003;58104;52.744;15.242;2024-03-25T02:10:05;4;4;
70554;PMS5003;58104;52.744;15.242;2024-03-25T02:12:30;4;4;
70554;PMS5003;58104;52.744;15.242;2024-03-25T02:14:55;2;2;
70554;PMS5003;58104;52.744;15.242;2024-03-25T02:17:21;5;5;
70554;PMS5003;58104;52.744;15.242;2024-03-25T02:19:46;2;2;
70554;PMS5003;58104;52.744;15.242;2024-03-25T02:22:12;4;4;
70554;PMS5003;58104;52.744;15.242;2024-03-25T02:24:37;3;3;
70554;PMS5003;58104;52.744;15.242;2024-03-25T02:27:03;4;4;
70554;PMS5003;58104;52.744;15.242;2024-03-25T02:29:32;3;3;
70554;PMS5003;58104;52.744;15.242;2024-03-25T02:31:54;2;2;
70554;PMS5003;58104;52.744;15.242;2024-03-25T02:34:19;2;2;
70554;PMS5003;58104;52.744;15.242;2024-03-25T02:36:45;5;3;
70554;PMS5003;58104;52.744;15.242;2024-03-25T02:39:10;5;3;
70554;PMS5003;58104;52.744;15.242;2024-03-25T02:41:35;6;4;
70554;PMS5003;58104;52.744;15.242;2024-03-25T02:44:01;3;3;
70554;PMS5003;58104;52.744;15.242;2024-03-25T02:46:26;4;4;
70554;PMS5003;58104;52.744;15.242;2024-03-25T02:48:52;3;3;
70554;PMS5003;58104;52.744;15.242;2024-03-25T02:51:17;5;3;
70554;PMS5003;58104;52.744;15.242;2024-03-25T02:53:43;4;4;
70554;PMS5003;58104;52.744;15.242;2024-03-25T02:56:08;4;4;
70554;PMS5003;58104;52.744;15.242;2024-03-25T02:58:34;3;3;
70554;PMS5003;58104;52.744;15.242;2024-03-25T03:00:59;4;4;
70554;PMS5003;58104;52.744;15.242;2024-03-25T03:03:25;3;3;
70554;PMS5003;58104;52.744;15.242;2024-03-25T03:05:50;3;3;
70554;PMS5003;58104;52.744;15.242;2024-03-25T03:08:15;3;3;
70554;PMS5003;58104;52.744;15.242;2024-03-25T03:10:41;4;4;
70554;PMS5003;58104;52.744;15.242;2024-03-25T03:13:06;4;4;
70554;PMS5003;58104;52.744;15.242;2024-03-25T03:15:32;4;4;
70554;PMS5003;58104;52.744;15.242;2024-03-25T03:17:57;4;4;
70554;PMS5003;58104;52.744;15.242;2024-03-25T03:20:23;4;4;
70554;PMS5003;58104;52.744;15.242;2024-03-25T03:22:48;5;5;
70554;PMS5003;58104;52.744;15.242;2024-03-25T03:25:14;3;3;
70554;PMS5003;58104;52.744;15.242;2024-03-25T03:27:39;4;4;
70554;PMS5003;58104;52.744;15.242;2024-03-25T03:30:05;4;4;
70554;PMS5003;58104;52.744;15.242;2024-03-25T03:32:30;3;3;
70554;PMS5003;58104;52.744;15.242;2024-03-25T03:34:55;5;4;
70554;PMS5003;58104;52.744;15.242;2024-03-25T03:37:21;6;5;
70554;PMS5003;58104;52.744;15.242;2024-03-25T03:39:46;3;3;
70554;PMS5003;58104;52.744;15.242;2024-03-25T03:42:12;4;4;
70554;PMS5003;58104;52.744;15.242;2024-03-25T03:44:37;3;3;
70554;PMS5003;58104;52.744;15.242;2024-03-25T03:47:03;4;4;
70554;PMS5003;58104;52.744;15.242;2024-03-25T03:49:28;4;4;
70554;PMS5003;58104;52.744;15.242;2024-03-25T03:51:54;4;4;
70554;PMS5003;58104;52.744;15.242;2024-03-25T03:54:19;3;3;
70554;PMS5003;58104;52.744;15.242;2024-03-25T03:56:44;4;4;
70554;PMS5003;58104;52.744;15.242;2024-03-25T03:59:10;4;4;
70554;PMS5003;58104;52.744;15.242;2024-03-25T04:01:35;3;3;
70554;PMS5003;58104;52.744;15.242;2024-03-25T04:04:01;3;3;
70554;PMS5003;58104;52.744;15.242;2024-03-25T04:06:26;3;3;
70554;PMS5003;58104;52.744;15.242;2024-03-25T04:08:52;4;4;
70554;PMS5003;58104;52.744;15.242;2024-03-25T04:11:17;4;4;
70554;PMS5003;58104;52.744;15.242;2024-03-25T04:13:43;3;3;
70554;PMS5003;58104;52.744;15.242;2024-03-25T04:16:08;4;4;
70554;PMS5003;58104;52.744;15.242;2024-03-25T04:18:34;4;4;
70554;PMS5003;58104;52.744;15.242;2024-03-25T04:20:59;3;3;
70554;PMS5003;58104;52.744;15.242;2024-03-25T04:23:25;4;4;
70554;PMS5003;58104;52.744;15.242;2024-03-25T04:25:50;6;5;
70554;PMS5003;58104;52.744;15.242;2024-03-25T04:28:15;5;4;
70554;PMS5003;58104;52.744;15.242;2024-03-25T04:30:41;3;3;
70554;PMS5003;58104;52.744;15.242;2024-03-25T04:33:06;3;3;
70554;PMS5003;58104;52.744;15.242;2024-03-25T04:35:32;4;4;
70554;PMS5003;58104;52.744;15.242;2024-03-25T04:37:57;4;4;
70554;PMS5003;58104;52.744;15.242;2024-03-25T04:40:23;2;2;
70554;PMS5003;58104;52.744;15.242;2024-03-25T04:42:48;3;3;
70554;PMS5003;58104;52.744;15.242;2024-03-25T04:45:14;5;5;
70554;PMS5003;58104;52.744;15.242;2024-03-25T04:47:39;3;3;
70554;PMS5003;58104;52.744;15.242;2024-03-25T04:50:05;5;5;
70554;PMS5003;58104;52.744;15.242;2024-03-25T04:52:30;4;4;
70554;PMS5003;58104;52.744;15.242;2024-03-25T04:54:55;9;9;
70554;PMS5003;58104;52.744;15.242;2024-03-25T04:57:20;8;6;
70554;PMS5003;58104;52.744;15.242;2024-03-25T04:59:46;4;4;
70554;PMS5003;58104;52.744;15.242;2024-03-25T05:02:11;4;4;
70554;PMS5003;58104;52.744;15.242;2024-03-25T05:04:37;6;6;
70554;PMS5003;58104;52.744;15.242;2024-03-25T05:07:02;5;5;
70554;PMS5003;58104;52.744;15.242;2024-03-25T05:09:28;3;3;
70554;PMS5003;58104;52.744;15.242;2024-03-25T05:11:53;5;5;
70554;PMS5003;58104;52.744;15.242;2024-03-25T05:14:19;8;6;
70554;PMS5003;58104;52.744;15.242;2024-03-25T05:16:44;4;4;
70554;PMS5003;58104;52.744;15.242;2024-03-25T05:19:10;7;6;
70554;PMS5003;58104;52.744;15.242;2024-03-25T05:21:35;6;6;
70554;PMS5003;58104;52.744;15.242;2024-03-25T05:24:03;5;5;
70554;PMS5003;58104;52.744;15.242;2024-03-25T05:26:26;7;6;
70554;PMS5003;58104;52.744;15.242;2024-03-25T05:28:53;8;8;
70554;PMS5003;58104;52.744;15.242;2024-03-25T05:31:17;7;7;
70554;PMS5003;58104;52.744;15.242;2024-03-25T05:33:43;10;10;
70554;PMS5003;58104;52.744;15.242;2024-03-25T05:36:08;9;9;
70554;PMS5003;58104;52.744;15.242;2024-03-25T05:38:33;8;7;
70554;PMS5003;58104;52.744;15.242;2024-03-25T05:40:59;10;9;
70554;PMS5003;58104;52.744;15.242;2024-03-25T05:43:24;12;10;
70554;PMS5003;58104;52.744;15.242;2024-03-25T05:45:50;10;9;
70554;PMS5003;58104;52.744;15.242;2024-03-25T05:48:15;8;8;
70554;PMS5003;58104;52.744;15.242;2024-03-25T05:50:41;7;7;
70554;PMS5003;58104;52.744;15.242;2024-03-25T05:53:06;11;10;
70554;PMS5003;58104;52.744;15.242;2024-03-25T05:55:32;8;8;
70554;PMS5003;58104;52.744;15.242;2024-03-25T05:57:57;12;12;
70554;PMS5003;58104;52.744;15.242;2024-03-25T06:00:23;15;15;
70554;PMS5003;58104;52.744;15.242;2024-03-25T06:02:48;12;11;
70554;PMS5003;58104;52.744;15.242;2024-03-25T06:05:14;12;12;
70554;PMS5003;58104;52.744;15.242;2024-03-25T06:07:39;12;12;
70554;PMS5003;58104;52.744;15.242;2024-03-25T06:10:05;13;12;
70554;PMS5003;58104;52.744;15.242;2024-03-25T06:12:30;11;11;
70554;PMS5003;58104;52.744;15.242;2024-03-25T06:14:55;10;10;
70554;PMS5003;58104;52.744;15.242;2024-03-25T06:17:20;11;11;
70554;PMS5003;58104;52.744;15.242;2024-03-25T06:19:46;14;10;
70554;PMS5003;58104;52.744;15.242;2024-03-25T06:22:11;14;11;
70554;PMS5003;58104;52.744;15.242;2024-03-25T06:24:37;9;9;
70554;PMS5003;58104;52.744;15.242;2024-03-25T06:27:02;15;12;
70554;PMS5003;58104;52.744;15.242;2024-03-25T06:29:28;15;15;
70554;PMS5003;58104;52.744;15.242;2024-03-25T06:31:53;14;13;
70554;PMS5003;58104;52.744;15.242;2024-03-25T06:34:19;13;11;
70554;PMS5003;58104;52.744;15.242;2024-03-25T06:36:44;11;9;
70554;PMS5003;58104;52.744;15.242;2024-03-25T06:39:09;14;11;
70554;PMS5003;58104;52.744;15.242;2024-03-25T06:41:34;13;12;
70554;PMS5003;58104;52.744;15.242;2024-03-25T06:44:00;13;11;
70554;PMS5003;58104;52.744;15.242;2024-03-25T06:46:25;16;16;
70554;PMS5003;58104;52.744;15.242;2024-03-25T06:48:51;17;14;
70554;PMS5003;58104;52.744;15.242;2024-03-25T06:51:16;11;11;
70554;PMS5003;58104;52.744;15.242;2024-03-25T06:53:41;13;13;
70554;PMS5003;58104;52.744;15.242;2024-03-25T06:56:07;18;13;
70554;PMS5003;58104;52.744;15.242;2024-03-25T06:58:32;12;10;
70554;PMS5003;58104;52.744;15.242;2024-03-25T07:01:03;10;10;
70554;PMS5003;58104;52.744;15.242;2024-03-25T07:03:23;9;9;
70554;PMS5003;58104;52.744;15.242;2024-03-25T07:05:49;8;7;
70554;PMS5003;58104;52.744;15.242;2024-03-25T07:08:14;9;9;
70554;PMS5003;58104;52.744;15.242;2024-03-25T07:10:41;12;10;
70554;PMS5003;58104;52.744;15.242;2024-03-25T07:13:04;10;10;
70554;PMS5003;58104;52.744;15.242;2024-03-25T07:15:30;11;9;
70554;PMS5003;58104;52.744;15.242;2024-03-25T07:17:55;9;8;
70554;PMS5003;58104;52.744;15.242;2024-03-25T07:20:20;8;8;
70554;PMS5003;58104;52.744;15.242;2024-03-25T07:22:46;8;8;
70554;PMS5003;58104;52.744;15.242;2024-03-25T07:25:11;12;10;
70554;PMS5003;58104;52.744;15.242;2024-03-25T07:27:36;11;10;
70554;PMS5003;58104;52.744;15.242;2024-03-25T07:30:02;8;8;
70554;PMS5003;58104;52.744;15.242;2024-03-25T07:32:27;9;9;
70554;PMS5003;58104;52.744;15.242;2024-03-25T07:34:53;11;9;
70554;PMS5003;58104;52.744;15.242;2024-03-25T07:37:18;8;8;
70554;PMS5003;58104;52.744;15.242;2024-03-25T07:39:46;10;9;
70554;PMS5003;58104;52.744;15.242;2024-03-25T07:42:09;10;8;
70554;PMS5003;58104;52.744;15.242;2024-03-25T07:44:35;11;9;
70554;PMS5003;58104;52.744;15.242;2024-03-25T07:47:00;14;13;
70554;PMS5003;58104;52.744;15.242;2024-03-25T07:49:25;9;9;
70554;PMS5003;58104;52.744;15.242;2024-03-25T07:51:50;10;8;
70554;PMS5003;58104;52.744;15.242;2024-03-25T07:54:16;8;8;
70554;PMS5003;58104;52.744;15.242;2024-03-25T07:56:41;8;8;
70554;PMS5003;58104;52.744;15.242;2024-03-25T07:59:07;7;7;
70554;PMS5003;58104;52.744;15.242;2024-03-25T08:01:32;10;8;
70554;PMS5003;58104;52.744;15.242;2024-03-25T08:03:58;7;7;
70554;PMS5003;58104;52.744;15.242;2024-03-25T08:06:23;10;8;
70554;PMS5003;58104;52.744;15.242;2024-03-25T08:08:48;8;8;
70554;PMS5003;58104;52.744;15.242;2024-03-25T08:11:14;7;7;
70554;PMS5003;58104;52.744;15.242;2024-03-25T08:13:39;8;7;
70554;PMS5003;58104;52.744;15.242;2024-03-25T08:16:05;8;8;
70554;PMS5003;58104;52.744;15.242;2024-03-25T08:18:30;10;7;
70554;PMS5003;58104;52.744;15.242;2024-03-25T08:20:55;10;9;
70554;PMS5003;58104;52.744;15.242;2024-03-25T08:23:20;8;6;
70554;PMS5003;58104;52.744;15.242;2024-03-25T08:25:46;7;7;
70554;PMS5003;58104;52.744;15.242;2024-03-25T08:28:11;9;9;
70554;PMS5003;58104;52.744;15.242;2024-03-25T08:30:37;8;8;
70554;PMS5003;58104;52.744;15.242;2024-03-25T08:33:02;9;9;
70554;PMS5003;58104;52.744;15.242;2024-03-25T08:35:28;11;9;
70554;PMS5003;58104;52.744;15.242;2024-03-25T08:37:53;12;8;
70554;PMS5003;58104;52.744;15.242;2024-03-25T08:40:18;10;9;
70554;PMS5003;58104;52.744;15.242;2024-03-25T08:42:43;7;7;
70554;PMS5003;58104;52.744;15.242;2024-03-25T08:45:09;9;9;
70554;PMS5003;58104;52.744;15.242;2024-03-25T08:47:34;9;7;
70554;PMS5003;58104;52.744;15.242;2024-03-25T08:50:00;7;7;
70554;PMS5003;58104;52.744;15.242;2024-03-25T08:52:25;11;10;
70554;PMS5003;58104;52.744;15.242;2024-03-25T08:54:51;10;10;
70554;PMS5003;58104;52.744;15.242;2024-03-25T08:57:16;6;6;
70554;PMS5003;58104;52.744;15.242;2024-03-25T08:59:41;12;12;
70554;PMS5003;58104;52.744;15.242;2024-03-25T09:02:07;8;8;
70554;PMS5003;58104;52.744;15.242;2024-03-25T09:04:32;11;11;
70554;PMS5003;58104;52.744;15.242;2024-03-25T09:06:57;9;8;
70554;PMS5003;58104;52.744;15.242;2024-03-25T09:09:23;10;8;
70554;PMS5003;58104;52.744;15.242;2024-03-25T09:11:48;8;8;
70554;PMS5003;58104;52.744;15.242;2024-03-25T09:14:14;7;7;
70554;PMS5003;58104;52.744;15.242;2024-03-25T09:16:39;9;9;
70554;PMS5003;58104;52.744;15.242;2024-03-25T09:19:04;6;6;
70554;PMS5003;58104;52.744;15.242;2024-03-25T09:21:30;10;10;
70554;PMS5003;58104;52.744;15.242;2024-03-25T09:23:55;10;9;
70554;PMS5003;58104;52.744;15.242;2024-03-25T09:26:21;7;7;
70554;PMS5003;58104;52.744;15.242;2024-03-25T09:28:46;8;8;
70554;PMS5003;58104;52.744;15.242;2024-03-25T09:31:12;9;9;
70554;PMS5003;58104;52.744;15.242;2024-03-25T09:33:37;8;8;
70554;PMS5003;58104;52.744;15.242;2024-03-25T09:36:02;8;8;
70554;PMS5003;58104;52.744;15.242;2024-03-25T09:38:28;7;6;
70554;PMS5003;58104;52.744;15.242;2024-03-25T09:40:53;6;6;
70554;PMS5003;58104;52.744;15.242;2024-03-25T09:43:21;7;7;
70554;PMS5003;58104;52.744;15.242;2024-03-25T09:45:44;10;9;
70554;PMS5003;58104;52.744;15.242;2024-03-25T09:48:09;9;9;
70554;PMS5003;58104;52.744;15.242;2024-03-25T09:50:35;7;7;
70554;PMS5003;58104;52.744;15.242;2024-03-25T09:53:01;9;9;
70554;PMS5003;58104;52.744;15.242;2024-03-25T09:55:26;7;7;
70554;PMS5003;58104;52.744;15.242;2024-03-25T09:57:51;9;7;
70554;PMS5003;58104;52.744;15.242;2024-03-25T10:00:17;8;7;
70554;PMS5003;58104;52.744;15.242;2024-03-25T10:02:42;10;7;
70554;PMS5003;58104;52.744;15.242;2024-03-25T10:05:08;9;8;
70554;PMS5003;58104;52.744;15.242;2024-03-25T10:07:33;11;10;
70554;PMS5003;58104;52.744;15.242;2024-03-25T10:09:58;8;7;
70554;PMS5003;58104;52.744;15.242;2024-03-25T10:12:24;9;8;
70554;PMS5003;58104;52.744;15.242;2024-03-25T10:14:49;10;9;
70554;PMS5003;58104;52.744;15.242;2024-03-25T10:17:15;9;9;
70554;PMS5003;58104;52.744;15.242;2024-03-25T10:19:40;9;8;
70554;PMS5003;58104;52.744;15.242;2024-03-25T10:22:06;9;9;
70554;PMS5003;58104;52.744;15.242;2024-03-25T10:26:56;6;6;
70554;PMS5003;58104;52.744;15.242;2024-03-25T10:29:24;9;7;
70554;PMS5003;58104;52.744;15.242;2024-03-25T10:31:47;9;9;
70554;PMS5003;58104;52.744;15.242;2024-03-25T10:34:12;7;7;
70554;PMS5003;58104;52.744;15.242;2024-03-25T10:36:38;8;8;
70554;PMS5003;58104;52.744;15.242;2024-03-25T10:39:04;8;8;
70554;PMS5003;58104;52.744;15.242;2024-03-25T10:41:29;7;5;
70554;PMS5003;58104;52.744;15.242;2024-03-25T10:43:54;7;7;
70554;PMS5003;58104;52.744;15.242;2024-03-25T10:46:20;7;7;
70554;PMS5003;58104;52.744;15.242;2024-03-25T10:48:48;8;7;
70554;PMS5003;58104;52.744;15.242;2024-03-25T10:51:10;10;10;
70554;PMS5003;58104;52.744;15.242;2024-03-25T10:53:36;9;9;
70554;PMS5003;58104;52.744;15.242;2024-03-25T10:56:01;7;7;
70554;PMS5003;58104;52.744;15.242;2024-03-25T10:58:27;10;8;
70554;PMS5003;58104;52.744;15.242;2024-03-25T11:00:52;7;7;
70554;PMS5003;58104;52.744;15.242;2024-03-25T11:03:17;6;6;
70554;PMS5003;58104;52.744;15.242;2024-03-25T11:05:43;7;7;
70554;PMS5003;58104;52.744;15.242;2024-03-25T11:08:10;8;7;
70554;PMS5003;58104;52.744;15.242;2024-03-25T11:10:34;6;6;
70554;PMS5003;58104;52.744;15.242;2024-03-25T11:12:59;5;5;
70554;PMS5003;58104;52.744;15.242;2024-03-25T11:15:25;3;3;
70554;PMS5003;58104;52.744;15.242;2024-03-25T11:17:50;7;7;
70554;PMS5003;58104;52.744;15.242;2024-03-25T11:20:16;7;6;
70554;PMS5003;58104;52.744;15.242;2024-03-25T11:25:06;9;6;
70554;PMS5003;58104;52.744;15.242;2024-03-25T11:27:32;9;8;
70554;PMS5003;58104;52.744;15.242;2024-03-25T11:29:57;7;7;
70554;PMS5003;58104;52.744;15.242;2024-03-25T11:32:22;6;6;
70554;PMS5003;58104;52.744;15.242;2024-03-25T11:34:51;6;6;
70554;PMS5003;58104;52.744;15.242;2024-03-25T11:37:13;4;4;
70554;PMS5003;58104;52.744;15.242;2024-03-25T11:39:39;6;6;
70554;PMS5003;58104;52.744;15.242;2024-03-25T11:42:04;4;4;
70554;PMS5003;58104;52.744;15.242;2024-03-25T11:44:29;6;6;
70554;PMS5003;58104;52.744;15.242;2024-03-25T11:46:55;7;7;
70554;PMS5003;58104;52.744;15.242;2024-03-25T11:49:20;6;6;
70554;PMS5003;58104;52.744;15.242;2024-03-25T11:51:45;5;5;
70554;PMS5003;58104;52.744;15.242;2024-03-25T11:54:11;6;6;
70554;PMS5003;58104;52.744;15.242;2024-03-25T11:56:36;8;7;
70554;PMS5003;58104;52.744;15.242;2024-03-25T11:59:01;7;7;
70554;PMS5003;58104;52.744;15.242;2024-03-25T12:01:27;5;5;
70554;PMS5003;58104;52.744;15.242;2024-03-25T12:03:53;6;5;
70554;PMS5003;58104;52.744;15.242;2024-03-25T12:06:17;3;3;
70554;PMS5003;58104;52.744;15.242;2024-03-25T12:08:43;3;3;
70554;PMS5003;58104;52.744;15.242;2024-03-25T12:11:08;4;4;
70554;PMS5003;58104;52.744;15.242;2024-03-25T12:13:33;5;5;
70554;PMS5003;58104;52.744;15.242;2024-03-25T12:15:59;4;3;
70554;PMS5003;58104;52.744;15.242;2024-03-25T12:18:24;4;4;
70554;PMS5003;58104;52.744;15.242;2024-03-25T12:20:49;5;4;
70554;PMS5003;58104;52.744;15.242;2024-03-25T12:23:15;5;5;
70554;PMS5003;58104;52.744;15.242;2024-03-25T12:25:40;7;6;
70554;PMS5003;58104;52.744;15.242;2024-03-25T12:28:08;6;6;
70554;PMS5003;58104;52.744;15.242;2024-03-25T12:30:30;4;3;
70554;PMS5003;58104;52.744;15.242;2024-03-25T12:32:56;7;5;
70554;PMS5003;58104;52.744;15.242;2024-03-25T12:35:21;4;4;
70554;PMS5003;58104;52.744;15.242;2024-03-25T12:37:47;7;7;
70554;PMS5003;58104;52.744;15.242;2024-03-25T12:40:12;3;3;
70554;PMS5003;58104;52.744;15.242;2024-03-25T12:42:37;5;5;
70554;PMS5003;58104;52.744;15.242;2024-03-25T12:45:03;5;5;
70554;PMS5003;58104;52.744;15.242;2024-03-25T12:47:28;4;3;
70554;PMS5003;58104;52.744;15.242;2024-03-25T12:49:53;4;4;
70554;PMS5003;58104;52.744;15.242;2024-03-25T12:52:19;4;4;
70554;PMS5003;58104;52.744;15.242;2024-03-25T12:54:44;5;5;
70554;PMS5003;58104;52.744;15.242;2024-03-25T12:57:10;9;8;
70554;PMS5003;58104;52.744;15.242;2024-03-25T12:59:35;6;6;
70554;PMS5003;58104;52.744;15.242;2024-03-25T13:02:01;5;5;
70554;PMS5003;58104;52.744;15.242;2024-03-25T13:04:27;4;4;
70554;PMS5003;58104;52.744;15.242;2024-03-25T13:06:51;6;6;
70554;PMS5003;58104;52.744;15.242;2024-03-25T13:09:17;3;3;
70554;PMS5003;58104;52.744;15.242;2024-03-25T13:11:42;6;6;
70554;PMS5003;58104;52.744;15.242;2024-03-25T13:14:07;7;5;
70554;PMS5003;58104;52.744;15.242;2024-03-25T13:16:32;4;4;
70554;PMS5003;58104;52.744;15.242;2024-03-25T13:18:58;5;4;
70554;PMS5003;58104;52.744;15.242;2024-03-25T13:21:23;5;5;
70554;PMS5003;58104;52.744;15.242;2024-03-25T13:23:48;5;4;
70554;PMS5003;58104;52.744;15.242;2024-03-25T13:26:14;5;5;
70554;PMS5003;58104;52.744;15.242;2024-03-25T13:28:39;3;3;
70554;PMS5003;58104;52.744;15.242;2024-03-25T13:31:04;3;3;
70554;PMS5003;58104;52.744;15.242;2024-03-25T13:33:30;4;4;
70554;PMS5003;58104;52.744;15.242;2024-03-25T13:35:55;4;4;
70554;PMS5003;58104;52.744;15.242;2024-03-25T13:38:21;4;4;
70554;PMS5003;58104;52.744;15.242;2024-03-25T13:40:48;5;5;
70554;PMS5003;58104;52.744;15.242;2024-03-25T13:43:11;6;4;
70554;PMS5003;58104;52.744;15.242;2024-03-25T13:45:38;5;5;
70554;PMS5003;58104;52.744;15.242;2024-03-25T13:48:02;3;3;
70554;PMS5003;58104;52.744;15.242;2024-03-25T13:50:27;5;5;
70554;PMS5003;58104;52.744;15.242;2024-03-25T13:52:53;4;4;
70554;PMS5003;58104;52.744;15.242;2024-03-25T13:55:18;6;6;
70554;PMS5003;58104;52.744;15.242;2024-03-25T13:57:44;4;4;
70554;PMS5003;58104;52.744;15.242;2024-03-25T14:00:09;7;6;
70554;PMS5003;58104;52.744;15.242;2024-03-25T14:02:34;6;5;
70554;PMS5003;58104;52.744;15.242;2024-03-25T14:04:59;6;6;
70554;PMS5003;58104;52.744;15.242;2024-03-25T14:07:25;5;5;
70554;PMS5003;58104;52.744;15.242;2024-03-25T14:09:50;3;3;
70554;PMS5003;58104;52.744;15.242;2024-03-25T14:12:16;4;3;
70554;PMS5003;58104;52.744;15.242;2024-03-25T14:14:41;5;5;
70554;PMS5003;58104;52.744;15.242;2024-03-25T14:17:06;3;3;
70554;PMS5003;58104;52.744;15.242;2024-03-25T14:19:32;3;3;
70554;PMS5003;58104;52.744;15.242;2024-03-25T14:21:57;3;3;
70554;PMS5003;58104;52.744;15.242;2024-03-25T14:24:23;7;6;
70554;PMS5003;58104;52.744;15.242;2024-03-25T14:26:48;6;6;
70554;PMS5003;58104;52.744;15.242;2024-03-25T14:29:13;4;4;
70554;PMS5003;58104;52.744;15.242;2024-03-25T14:31:39;4;4;
70554;PMS5003;58104;52.744;15.242;2024-03-25T14:34:04;9;9;
70554;PMS5003;58104;52.744;15.242;2024-03-25T14:36:30;4;4;
70554;PMS5003;58104;52.744;15.242;2024-03-25T14:38:55;4;4;
70554;PMS5003;58104;52.744;15.242;2024-03-25T14:41:21;5;5;
70554;PMS5003;58104;52.744;15.242;2024-03-25T14:43:46;5;4;
70554;PMS5003;58104;52.744;15.242;2024-03-25T14:46:11;4;4;
70554;PMS5003;58104;52.744;15.242;2024-03-25T14:48:37;6;5;
70554;PMS5003;58104;52.744;15.242;2024-03-25T14:51:02;3;3;
70554;PMS5003;58104;52.744;15.242;2024-03-25T14:53:27;4;4;
70554;PMS5003;58104;52.744;15.242;2024-03-25T14:55:53;4;4;
70554;PMS5003;58104;52.744;15.242;2024-03-25T14:58:18;7;6;
70554;PMS5003;58104;52.744;15.242;2024-03-25T15:00:44;6;6;
70554;PMS5003;58104;52.744;15.242;2024-03-25T15:03:09;3;3;
70554;PMS5003;58104;52.744;15.242;2024-03-25T15:05:34;6;4;
70554;PMS5003;58104;52.744;15.242;2024-03-25T15:08:00;6;6;
70554;PMS5003;58104;52.744;15.242;2024-03-25T15:10:25;5;4;
70554;PMS5003;58104;52.744;15.242;2024-03-25T15:12:51;7;6;
70554;PMS5003;58104;52.744;15.242;2024-03-25T15:15:16;5;5;
70554;PMS5003;58104;52.744;15.242;2024-03-25T15:17:41;5;5;
70554;PMS5003;58104;52.744;15.242;2024-03-25T15:20:07;6;4;
70554;PMS5003;58104;52.744;15.242;2024-03-25T15:22:32;4;4;
70554;PMS5003;58104;52.744;15.242;2024-03-25T15:24:58;4;4;
70554;PMS5003;58104;52.744;15.242;2024-03-25T15:27:23;3;3;
70554;PMS5003;58104;52.744;15.242;2024-03-25T15:29:49;5;5;
70554;PMS5003;58104;52.744;15.242;2024-03-25T15:32:14;4;4;
70554;PMS5003;58104;52.744;15.242;2024-03-25T15:34:39;4;4;
70554;PMS5003;58104;52.744;15.242;2024-03-25T15:37:05;4;4;
70554;PMS5003;58104;52.744;15.242;2024-03-25T15:39:30;6;6;
70554;PMS5003;58104;52.744;15.242;2024-03-25T15:41:56;2;2;
70554;PMS5003;58104;52.744;15.242;2024-03-25T15:44:21;5;5;
70554;PMS5003;58104;52.744;15.242;2024-03-25T15:46:47;4;4;
70554;PMS5003;58104;52.744;15.242;2024-03-25T15:49:12;3;3;
70554;PMS5003;58104;52.744;15.242;2024-03-25T15:51:37;3;3;
70554;PMS5003;58104;52.744;15.242;2024-03-25T15:54:03;3;3;
70554;PMS5003;58104;52.744;15.242;2024-03-25T15:56:28;4;4;
70554;PMS5003;58104;52.744;15.242;2024-03-25T15:58:53;4;4;
70554;PMS5003;58104;52.744;15.242;2024-03-25T16:01:19;4;4;
70554;PMS5003;58104;52.744;15.242;2024-03-25T16:03:44;6;4;
70554;PMS5003;58104;52.744;15.242;2024-03-25T16:06:10;4;4;
70554;PMS5003;58104;52.744;15.242;2024-03-25T16:08:35;2;2;
70554;PMS5003;58104;52.744;15.242;2024-03-25T16:11:01;4;4;
70554;PMS5003;58104;52.744;15.242;2024-03-25T16:13:26;2;2;
70554;PMS5003;58104;52.744;15.242;2024-03-25T16:15:59;4;4;
70554;PMS5003;58104;52.744;15.242;2024-03-25T16:18:17;3;3;
70554;PMS5003;58104;52.744;15.242;2024-03-25T16:20:42;3;3;
70554;PMS5003;58104;52.744;15.242;2024-03-25T16:23:08;6;5;
70554;PMS5003;58104;52.744;15.242;2024-03-25T16:25:33;5;3;